createdAt,value
2022-08-25T00:02:03.176Z,20.50
2022-08-25T00:04:33.729Z,20.50
2022-08-25T00:07:04.019Z,20.50
2022-08-25T00:09:33.231Z,20.40
2022-08-25T00:12:01.382Z,20.40
2022-08-25T00:14:33.021Z,20.50
2022-08-25T00:17:00.705Z,20.50
2022-08-25T00:19:32.380Z,20.50
2022-08-25T00:22:01.284Z,20.50
2022-08-25T00:24:29.689Z,20.40
2022-08-25T00:26:59.225Z,20.40
2022-08-25T00:29:27.175Z,20.40
2022-08-25T00:31:55.682Z,20.30
2022-08-25T00:34:27.225Z,20.40
2022-08-25T00:36:54.869Z,20.40
2022-08-25T00:39:23.831Z,20.40
2022-08-25T00:41:54.327Z,20.40
2022-08-25T00:44:21.820Z,20.40
2022-08-25T00:46:56.714Z,20.30
2022-08-25T00:49:32.983Z,20.40
2022-08-25T00:52:17.865Z,20.40
2022-08-25T00:54:47.065Z,20.40
2022-08-25T00:57:18.536Z,20.40
2022-08-25T00:59:50.182Z,20.20
2022-08-25T01:02:18.096Z,20.40
2022-08-25T01:04:48.974Z,20.40
2022-08-25T01:07:20.015Z,20.30
2022-08-25T01:09:50.256Z,20.30
2022-08-25T01:12:18.294Z,20.30
2022-08-25T01:14:48.624Z,20.40
2022-08-25T01:17:16.264Z,20.40
2022-08-25T01:19:43.832Z,20.20
2022-08-25T01:22:12.718Z,20.40
2022-08-25T01:24:45.607Z,20.20
2022-08-25T01:27:13.732Z,20.30
2022-08-25T01:29:42.876Z,20.20
2022-08-25T01:32:13.618Z,20.30
2022-08-25T01:34:43.584Z,20.20
2022-08-25T01:37:13.872Z,20.30
2022-08-25T01:39:41.887Z,20.20
2022-08-25T01:42:29.517Z,20.20
2022-08-25T01:44:57.765Z,20.30
2022-08-25T01:47:25.187Z,20.20
2022-08-25T01:49:52.468Z,20.20
2022-08-25T01:52:55.042Z,20.10
2022-08-25T01:55:22.925Z,20.10
2022-08-25T01:57:50.343Z,20.10
2022-08-25T02:00:19.368Z,20.00
2022-08-25T02:02:47.032Z,19.90
2022-08-25T02:05:23.353Z,20.00
2022-08-25T02:07:51.262Z,19.90
2022-08-25T02:10:19.235Z,19.90
2022-08-25T02:12:46.701Z,19.90
2022-08-25T02:15:14.883Z,19.90
2022-08-25T02:17:42.324Z,19.90
2022-08-25T02:20:10.048Z,19.90
2022-08-25T02:22:37.695Z,19.80
2022-08-25T02:25:06.745Z,19.80
2022-08-25T02:27:34.412Z,19.80
2022-08-25T02:30:01.993Z,19.80
2022-08-25T02:32:29.583Z,19.70
2022-08-25T02:34:57.240Z,19.70
2022-08-25T02:37:24.575Z,19.80
2022-08-25T02:39:52.134Z,19.80
2022-08-25T02:42:19.655Z,19.70
2022-08-25T02:44:47.755Z,19.70
2022-08-25T02:47:15.230Z,19.70
2022-08-25T02:49:42.905Z,19.70
2022-08-25T02:52:10.473Z,19.70
2022-08-25T02:54:38.167Z,19.70
2022-08-25T02:57:05.860Z,19.80
2022-08-25T02:59:33.268Z,19.80
2022-08-25T03:02:00.782Z,19.80
2022-08-25T03:04:29.359Z,19.90
2022-08-25T03:06:56.917Z,19.90
2022-08-25T03:09:24.476Z,19.90
2022-08-25T03:11:51.911Z,19.90
2022-08-25T03:14:19.319Z,19.90
2022-08-25T03:16:47.085Z,20.00
2022-08-25T03:19:14.679Z,19.90
2022-08-25T03:21:42.041Z,19.90
2022-08-25T03:24:09.433Z,20.00
2022-08-25T03:26:56.129Z,19.90
2022-08-25T03:29:30.215Z,19.90
2022-08-25T03:32:00.136Z,19.90
2022-08-25T03:34:30.249Z,20.00
2022-08-25T03:36:58.476Z,19.90
2022-08-25T03:39:27.176Z,20.00
2022-08-25T03:41:54.825Z,19.90
2022-08-25T03:44:22.463Z,20.00
2022-08-25T03:46:52.209Z,19.90
2022-08-25T03:49:23.068Z,20.00
2022-08-25T03:51:53.756Z,20.00
2022-08-25T03:54:23.622Z,20.10
2022-08-25T03:56:51.194Z,20.00
2022-08-25T03:59:19.221Z,20.00
2022-08-25T04:01:51.390Z,20.10
2022-08-25T04:04:21.497Z,20.10
2022-08-25T04:06:48.685Z,20.10
2022-08-25T04:09:15.884Z,20.10
2022-08-25T04:11:43.263Z,20.20
2022-08-25T04:14:13.027Z,20.20
2022-08-25T04:16:44.646Z,20.20
2022-08-25T04:19:12.285Z,20.20
2022-08-25T04:21:40.968Z,20.20
2022-08-25T04:24:11.328Z,20.30
2022-08-25T04:26:44.773Z,20.20
2022-08-25T04:29:14.249Z,20.30
2022-08-25T04:31:48.647Z,20.40
2022-08-25T04:34:29.840Z,20.30
2022-08-25T04:37:03.298Z,20.40
2022-08-25T04:39:30.910Z,20.40
2022-08-25T04:42:00.918Z,20.40
2022-08-25T04:44:30.123Z,20.40
2022-08-25T04:46:58.524Z,20.40
2022-08-25T04:49:26.026Z,20.40
2022-08-25T04:51:53.660Z,20.40
2022-08-25T04:54:23.629Z,20.40
2022-08-25T04:56:54.630Z,20.60
2022-08-25T04:59:29.508Z,20.50
2022-08-25T05:02:02.795Z,20.60
2022-08-25T05:04:31.120Z,20.60
2022-08-25T05:06:59.009Z,20.60
2022-08-25T05:09:28.106Z,20.70
2022-08-25T05:11:56.139Z,20.50
2022-08-25T05:14:26.592Z,20.50
2022-08-25T05:16:55.918Z,20.60
2022-08-25T05:19:24.595Z,20.70
2022-08-25T05:21:54.193Z,20.60
2022-08-25T05:24:22.484Z,20.70
2022-08-25T05:26:50.328Z,20.90
2022-08-25T05:29:20.094Z,21.00
2022-08-25T05:31:50.569Z,21.20
2022-08-25T05:34:19.782Z,21.40
2022-08-25T05:36:48.831Z,21.70
2022-08-25T05:39:16.881Z,22.00
2022-08-25T05:41:44.394Z,22.20
2022-08-25T05:44:13.005Z,22.40
2022-08-25T05:46:40.876Z,22.70
2022-08-25T05:49:08.397Z,22.90
2022-08-25T05:51:35.787Z,23.10
2022-08-25T05:54:03.966Z,23.10
2022-08-25T05:56:31.815Z,23.30
2022-08-25T05:59:00.331Z,23.60
2022-08-25T06:01:48.502Z,23.80
2022-08-25T06:04:20.726Z,24.10
2022-08-25T06:06:49.588Z,24.20
2022-08-25T06:09:16.966Z,24.20
2022-08-25T06:11:45.172Z,23.90
2022-08-25T06:14:12.659Z,23.70
2022-08-25T06:16:40.687Z,23.90
2022-08-25T06:19:10.659Z,23.80
2022-08-25T06:21:40.049Z,23.60
2022-08-25T06:24:12.151Z,23.50
2022-08-25T06:26:43.578Z,23.70
2022-08-25T06:29:10.969Z,23.80
2022-08-25T06:31:38.347Z,23.70
2022-08-25T06:34:06.603Z,23.40
2022-08-25T06:36:34.887Z,23.20
2022-08-25T06:39:02.587Z,23.30
2022-08-25T06:41:36.619Z,23.60
2022-08-25T06:44:05.727Z,23.90
2022-08-25T06:46:36.264Z,23.90
2022-08-25T06:49:08.315Z,23.70
2022-08-25T06:51:36.518Z,23.50
2022-08-25T06:54:06.661Z,23.30
2022-08-25T06:56:34.654Z,23.10
2022-08-25T06:59:06.684Z,23.00
2022-08-25T07:01:34.387Z,23.10
2022-08-25T07:04:05.682Z,23.20
2022-08-25T07:06:36.541Z,23.20
2022-08-25T07:09:06.782Z,23.30
2022-08-25T07:11:34.794Z,23.70
2022-08-25T07:14:03.462Z,23.70
2022-08-25T07:16:32.007Z,23.50
2022-08-25T07:19:00.865Z,23.70
2022-08-25T07:21:33.366Z,24.00
2022-08-25T07:24:03.699Z,23.90
2022-08-25T07:26:37.906Z,24.10
2022-08-25T07:29:11.070Z,24.00
2022-08-25T07:31:38.829Z,23.80
2022-08-25T07:34:26.507Z,23.80
2022-08-25T07:36:55.434Z,23.80
2022-08-25T07:39:23.559Z,24.00
2022-08-25T07:41:52.267Z,24.10
2022-08-25T07:44:21.285Z,24.10
2022-08-25T07:46:50.368Z,24.00
2022-08-25T07:49:23.195Z,24.10
2022-08-25T07:52:04.402Z,23.90
2022-08-25T07:54:38.058Z,23.70
2022-08-25T07:57:08.721Z,23.60
2022-08-25T07:59:40.728Z,23.60
2022-08-25T08:02:18.398Z,23.60
2022-08-25T08:04:51.601Z,23.40
2022-08-25T08:07:24.108Z,23.40
2022-08-25T08:10:42.312Z,23.20
2022-08-25T08:12:59.937Z,23.30
2022-08-25T08:15:30.658Z,23.40
2022-08-25T08:18:01.074Z,23.30
2022-08-25T08:20:42.285Z,23.20
2022-08-25T08:23:10.704Z,23.20
2022-08-25T08:25:38.111Z,23.20
2022-08-25T08:28:07.241Z,23.20
2022-08-25T08:30:36.858Z,23.20
2022-08-25T08:33:09.533Z,23.30
2022-08-25T08:35:37.996Z,23.60
2022-08-25T08:38:13.518Z,23.70
2022-08-25T08:41:22.881Z,23.70
2022-08-25T08:44:00.371Z,23.80
2022-08-25T08:47:03.545Z,23.70
2022-08-25T08:50:08.285Z,23.60
2022-08-25T08:53:00.109Z,23.40
2022-08-25T08:55:33.665Z,23.30
2022-08-25T08:58:05.928Z,23.30
2022-08-25T09:00:40.860Z,23.30
2022-08-25T09:03:25.187Z,23.40
2022-08-25T09:05:56.840Z,23.40
2022-08-25T09:08:24.599Z,23.40
2022-08-25T09:11:30.683Z,23.50
2022-08-25T09:14:30.662Z,23.70
2022-08-25T09:17:07.398Z,23.70
2022-08-25T09:20:19.008Z,23.60
2022-08-25T09:23:01.428Z,23.60
2022-08-25T09:25:54.054Z,23.70
2022-08-25T09:28:29.528Z,23.80
2022-08-25T09:31:17.297Z,24.00
2022-08-25T09:33:45.041Z,24.20
2022-08-25T09:36:14.939Z,24.00
2022-08-25T09:38:42.866Z,24.10
2022-08-25T09:41:11.713Z,23.90
2022-08-25T09:43:45.228Z,23.80
2022-08-25T09:46:23.611Z,23.80
2022-08-25T09:48:59.921Z,23.80
2022-08-25T09:51:37.963Z,24.00
2022-08-25T09:54:16.677Z,24.00
2022-08-25T09:56:56.508Z,24.10
2022-08-25T09:59:35.130Z,24.00
2022-08-25T10:02:24.594Z,24.10
2022-08-25T10:04:53.666Z,23.90
2022-08-25T10:07:37.258Z,23.90
2022-08-25T10:10:17.965Z,24.00
2022-08-25T10:13:02.393Z,24.10
2022-08-25T10:15:38.941Z,24.00
2022-08-25T10:18:32.583Z,24.00
2022-08-25T10:21:10.738Z,24.00
2022-08-25T10:23:52.074Z,24.20
2022-08-25T10:26:35.393Z,24.00
2022-08-25T10:29:02.861Z,23.80
2022-08-25T10:31:44.649Z,23.80
2022-08-25T10:34:46.795Z,24.10
2022-08-25T10:37:50.348Z,23.80
2022-08-25T10:40:37.526Z,23.70
2022-08-25T10:43:11.703Z,23.80
2022-08-25T10:45:48.304Z,23.70
2022-08-25T10:48:30.672Z,24.00
2022-08-25T10:51:03.879Z,24.00
2022-08-25T10:54:00.233Z,23.90
2022-08-25T10:56:43.665Z,23.90
2022-08-25T10:59:27.079Z,23.80
2022-08-25T11:02:34.878Z,23.80
2022-08-25T11:05:29.561Z,23.90
2022-08-25T11:08:18.025Z,24.20
2022-08-25T11:11:10.552Z,24.10
2022-08-25T11:13:55.543Z,24.10
2022-08-25T11:16:43.883Z,24.20
2022-08-25T11:19:42.365Z,24.20
2022-08-25T11:22:21.903Z,24.20
2022-08-25T11:25:15.868Z,24.10
2022-08-25T11:28:13.386Z,24.10
2022-08-25T11:30:41.869Z,24.40
2022-08-25T11:33:14.438Z,24.60
2022-08-25T11:35:47.753Z,24.40
2022-08-25T11:38:53.510Z,24.40
2022-08-25T11:41:36.517Z,24.40
2022-08-25T11:44:19.584Z,24.10
2022-08-25T11:46:49.808Z,24.10
2022-08-25T11:49:32.023Z,24.10
2022-08-25T11:52:02.766Z,23.90
2022-08-25T11:54:44.662Z,24.10
2022-08-25T11:57:27.493Z,24.00
2022-08-25T11:59:57.697Z,24.00
2022-08-25T12:02:52.135Z,23.90
2022-08-25T12:05:25.032Z,24.00
2022-08-25T12:08:14.017Z,24.10
2022-08-25T12:11:10.960Z,24.00
2022-08-25T12:13:39.176Z,23.90
2022-08-25T12:16:08.147Z,23.80
2022-08-25T12:18:46.031Z,23.60
2022-08-25T12:21:15.587Z,23.60
2022-08-25T12:24:03.428Z,23.60
2022-08-25T12:27:06.858Z,23.60
2022-08-25T12:29:42.654Z,23.70
2022-08-25T12:33:01.135Z,23.60
2022-08-25T12:35:59.390Z,23.60
2022-08-25T12:38:51.899Z,23.70
2022-08-25T12:41:27.457Z,23.60
2022-08-25T12:44:42.056Z,23.70
2022-08-25T12:47:24.504Z,23.90
2022-08-25T12:49:52.434Z,23.90
2022-08-25T12:52:22.899Z,23.90
2022-08-25T12:54:59.821Z,23.90
2022-08-25T12:57:47.654Z,23.80
2022-08-25T13:00:32.944Z,23.90
2022-08-25T13:03:22.018Z,24.00
2022-08-25T13:05:56.877Z,24.00
2022-08-25T13:08:58.968Z,24.10
2022-08-25T13:11:52.431Z,24.10
2022-08-25T13:14:38.546Z,24.00
2022-08-25T13:17:07.494Z,24.00
2022-08-25T13:19:38.123Z,24.00
2022-08-25T13:22:18.138Z,24.10
2022-08-25T13:24:51.031Z,23.90
2022-08-25T13:27:27.713Z,23.80
2022-08-25T13:29:58.464Z,23.60
2022-08-25T13:32:34.500Z,23.60
2022-08-25T13:35:33.257Z,23.60
2022-08-25T13:38:14.588Z,23.40
2022-08-25T13:40:43.305Z,23.40
2022-08-25T13:43:15.093Z,23.40
2022-08-25T13:45:50.551Z,23.20
2022-08-25T13:48:40.169Z,23.30
2022-08-25T13:51:24.146Z,23.30
2022-08-25T13:54:05.585Z,23.30
2022-08-25T13:56:42.054Z,23.30
2022-08-25T13:59:40.191Z,23.20
2022-08-25T14:02:15.052Z,23.40
2022-08-25T14:04:51.464Z,23.40
2022-08-25T14:07:22.769Z,23.50
2022-08-25T14:10:01.359Z,23.40
2022-08-25T14:12:45.806Z,23.40
2022-08-25T14:15:32.255Z,23.40
2022-08-25T14:18:13.809Z,23.30
2022-08-25T14:20:48.126Z,23.20
2022-08-25T14:23:21.808Z,23.30
2022-08-25T14:25:55.366Z,23.30
2022-08-25T14:28:25.917Z,23.30
2022-08-25T14:31:20.991Z,23.40
2022-08-25T14:34:13.528Z,23.30
2022-08-25T14:36:41.365Z,23.20
2022-08-25T14:39:12.831Z,23.10
2022-08-25T14:41:41.793Z,23.10
2022-08-25T14:44:10.815Z,23.10
2022-08-25T14:46:43.247Z,23.00
2022-08-25T14:49:16.126Z,23.00
2022-08-25T14:51:43.818Z,23.00
2022-08-25T14:54:15.247Z,22.90
2022-08-25T14:56:43.388Z,22.80
2022-08-25T14:59:12.714Z,22.90
2022-08-25T15:01:40.860Z,22.90
2022-08-25T15:04:15.523Z,22.90
2022-08-25T15:06:45.019Z,22.90
2022-08-25T15:09:16.862Z,22.80
2022-08-25T15:11:50.593Z,22.90
2022-08-25T15:14:29.137Z,23.00
2022-08-25T15:17:02.022Z,22.90
2022-08-25T15:19:29.901Z,22.80
2022-08-25T15:21:58.086Z,22.70
2022-08-25T15:24:28.706Z,22.70
2022-08-25T15:27:02.864Z,22.70
2022-08-25T15:29:35.217Z,22.50
2022-08-25T15:32:08.651Z,22.50
2022-08-25T15:34:37.650Z,22.40
2022-08-25T15:37:14.498Z,22.40
2022-08-25T15:39:44.628Z,22.40
2022-08-25T15:42:12.700Z,22.30
2022-08-25T15:44:40.818Z,22.30
2022-08-25T15:47:12.791Z,22.20
2022-08-25T15:49:40.541Z,22.20
2022-08-25T15:52:08.000Z,22.10
2022-08-25T15:54:35.492Z,22.10
2022-08-25T15:57:03.856Z,22.00
2022-08-25T15:59:40.215Z,22.00
2022-08-25T16:02:15.261Z,22.10
2022-08-25T16:04:42.931Z,21.90
2022-08-25T16:07:13.237Z,22.00
2022-08-25T16:09:41.857Z,22.00
2022-08-25T16:12:09.520Z,22.00
2022-08-25T16:14:38.688Z,21.90
2022-08-25T16:17:06.898Z,21.90
2022-08-25T16:19:35.841Z,21.70
2022-08-25T16:22:06.618Z,21.80
2022-08-25T16:24:39.672Z,21.70
2022-08-25T16:27:11.326Z,21.60
2022-08-25T16:29:41.628Z,21.70
2022-08-25T16:32:14.413Z,21.40
2022-08-25T16:34:43.092Z,21.50
2022-08-25T16:37:12.018Z,21.40
2022-08-25T16:39:44.409Z,21.30
2022-08-25T16:42:13.431Z,21.30
2022-08-25T16:44:41.171Z,21.30
2022-08-25T16:47:09.342Z,21.20
2022-08-25T16:49:38.033Z,21.40
2022-08-25T16:52:28.595Z,21.30
2022-08-25T16:55:16.296Z,21.40
2022-08-25T16:57:49.584Z,21.50
2022-08-25T17:00:25.644Z,21.60
2022-08-25T17:02:59.655Z,21.70
2022-08-25T17:05:32.334Z,21.60
2022-08-25T17:08:20.187Z,21.60
2022-08-25T17:10:48.035Z,21.40
2022-08-25T17:13:16.078Z,21.30
2022-08-25T17:15:47.072Z,21.10
2022-08-25T17:18:15.179Z,21.10
2022-08-25T17:20:45.661Z,21.10
2022-08-25T17:23:13.852Z,21.00
2022-08-25T17:25:43.476Z,20.90
2022-08-25T17:28:12.771Z,20.80
2022-08-25T17:30:41.250Z,20.80
2022-08-25T17:33:09.058Z,20.80
2022-08-25T17:35:42.052Z,20.80
2022-08-25T17:38:10.297Z,20.70
2022-08-25T17:40:39.965Z,20.60
2022-08-25T17:43:09.102Z,20.60
2022-08-25T17:45:37.851Z,20.60
2022-08-25T17:48:09.386Z,20.60
2022-08-25T17:50:39.911Z,20.50
2022-08-25T17:53:09.449Z,20.50
2022-08-25T17:55:38.695Z,20.40
2022-08-25T17:58:15.010Z,20.40
2022-08-25T18:00:45.968Z,20.30
2022-08-25T18:03:14.147Z,20.30
2022-08-25T18:05:41.995Z,20.20
2022-08-25T18:08:10.695Z,20.20
2022-08-25T18:10:39.461Z,20.20
2022-08-25T18:13:07.367Z,20.20
2022-08-25T18:15:36.050Z,20.20
2022-08-25T18:18:04.482Z,20.20
2022-08-25T18:20:32.337Z,20.10
2022-08-25T18:23:00.035Z,20.20
2022-08-25T18:25:28.667Z,20.20
2022-08-25T18:27:57.982Z,20.20
2022-08-25T18:30:26.458Z,20.20
2022-08-25T18:32:55.908Z,20.20
2022-08-25T18:35:26.807Z,20.10
2022-08-25T18:38:13.072Z,20.10
2022-08-25T18:40:41.592Z,20.00
2022-08-25T18:43:13.069Z,19.90
2022-08-25T18:45:44.492Z,19.90
2022-08-25T18:48:11.813Z,19.90
2022-08-25T18:50:41.488Z,19.80
2022-08-25T18:53:09.978Z,19.80
2022-08-25T18:55:38.673Z,19.80
2022-08-25T18:58:08.007Z,19.70
2022-08-25T19:00:42.093Z,19.70
2022-08-25T19:03:11.484Z,19.60
2022-08-25T19:05:42.485Z,19.60
2022-08-25T19:08:18.507Z,19.50
2022-08-25T19:10:52.661Z,19.60
2022-08-25T19:13:22.628Z,19.60
2022-08-25T19:15:52.066Z,19.50
2022-08-25T19:18:25.887Z,19.50
2022-08-25T19:20:53.813Z,19.40
2022-08-25T19:23:21.166Z,19.30
2022-08-25T19:25:48.597Z,19.40
2022-08-25T19:28:17.428Z,19.30
2022-08-25T19:30:50.102Z,19.30
2022-08-25T19:33:44.651Z,19.30
2022-08-25T19:36:08.710Z,19.30
2022-08-25T19:38:37.658Z,19.20
2022-08-25T19:41:09.404Z,19.20
2022-08-25T19:43:55.839Z,19.10
2022-08-25T19:46:33.280Z,19.10
2022-08-25T19:49:28.189Z,19.00
2022-08-25T19:52:00.493Z,18.90
2022-08-25T19:54:32.128Z,18.90
2022-08-25T19:56:59.951Z,18.70
2022-08-25T19:59:40.599Z,18.70
2022-08-25T20:02:13.165Z,18.70
2022-08-25T20:04:49.961Z,18.60
2022-08-25T20:07:20.270Z,18.50
2022-08-25T20:09:48.863Z,18.60
2022-08-25T20:12:17.622Z,18.60
2022-08-25T20:14:45.469Z,18.40
2022-08-25T20:17:23.519Z,18.40
2022-08-25T20:19:58.480Z,18.50
2022-08-25T20:22:31.875Z,18.40
2022-08-25T20:25:04.125Z,18.30
2022-08-25T20:27:54.924Z,18.30
2022-08-25T20:30:30.626Z,18.30
2022-08-25T20:32:58.796Z,18.30
2022-08-25T20:35:28.580Z,18.30
2022-08-25T20:37:58.481Z,18.20
2022-08-25T20:40:29.245Z,18.10
2022-08-25T20:42:58.927Z,18.00
2022-08-25T20:45:26.469Z,18.00
2022-08-25T20:47:53.995Z,17.90
2022-08-25T20:50:23.360Z,17.80
2022-08-25T20:52:52.467Z,17.80
2022-08-25T20:55:19.858Z,17.80
2022-08-25T20:57:47.814Z,17.70
2022-08-25T21:00:16.905Z,17.70
2022-08-25T21:02:46.587Z,17.70
2022-08-25T21:05:14.296Z,17.60
2022-08-25T21:07:42.186Z,17.70
2022-08-25T21:10:14.470Z,17.60
2022-08-25T21:12:43.176Z,17.50
2022-08-25T21:15:12.428Z,17.60
2022-08-25T21:17:40.152Z,17.50
2022-08-25T21:20:09.105Z,17.50
2022-08-25T21:22:38.002Z,17.50
2022-08-25T21:25:07.133Z,17.30
2022-08-25T21:27:35.374Z,17.30
2022-08-25T21:30:02.670Z,17.10
2022-08-25T21:32:30.111Z,17.20
2022-08-25T21:34:57.552Z,17.10
2022-08-25T21:37:27.297Z,17.00
2022-08-25T21:39:55.079Z,17.00
2022-08-25T21:42:25.022Z,16.90
2022-08-25T21:44:52.703Z,16.80
2022-08-25T21:47:21.704Z,16.80
2022-08-25T21:49:51.062Z,16.80
2022-08-25T21:52:18.965Z,16.80
2022-08-25T21:54:46.626Z,16.80
2022-08-25T21:57:14.201Z,16.80
2022-08-25T21:59:43.479Z,16.80
2022-08-25T22:02:13.458Z,16.80
2022-08-25T22:04:42.851Z,16.80
2022-08-25T22:07:11.371Z,16.90
2022-08-25T22:09:40.332Z,16.90
2022-08-25T22:12:08.485Z,17.00
2022-08-25T22:14:36.588Z,16.90
2022-08-25T22:17:05.414Z,16.90
2022-08-25T22:19:37.045Z,17.00
2022-08-25T22:22:07.165Z,16.80
2022-08-25T22:24:34.724Z,16.90
2022-08-25T22:27:02.264Z,16.80
2022-08-25T22:29:30.576Z,16.80
2022-08-25T22:32:02.070Z,16.80
2022-08-25T22:34:33.065Z,16.90
2022-08-25T22:37:03.564Z,16.80
2022-08-25T22:39:32.562Z,16.80
2022-08-25T22:42:03.614Z,16.70
2022-08-25T22:44:31.339Z,16.70
2022-08-25T22:47:01.930Z,16.70
2022-08-25T22:49:30.104Z,16.60
2022-08-25T22:51:57.682Z,16.60
2022-08-25T22:54:25.724Z,16.50
2022-08-25T22:56:53.651Z,16.50
2022-08-25T22:59:22.441Z,16.40
2022-08-25T23:01:54.632Z,16.40
2022-08-25T23:04:22.748Z,16.50
2022-08-25T23:06:53.417Z,16.40
2022-08-25T23:09:21.654Z,16.40
2022-08-25T23:11:51.240Z,16.40
2022-08-25T23:14:19.046Z,16.40
2022-08-25T23:16:50.536Z,16.30
2022-08-25T23:19:18.761Z,16.30
2022-08-25T23:22:05.861Z,16.30
2022-08-25T23:24:33.280Z,16.30
2022-08-25T23:27:03.895Z,16.30
2022-08-25T23:29:33.708Z,16.20
2022-08-25T23:32:01.340Z,16.20
2022-08-25T23:34:29.216Z,16.20
2022-08-25T23:36:57.438Z,16.30
2022-08-25T23:39:25.592Z,16.20
2022-08-25T23:41:53.260Z,16.20
2022-08-25T23:44:22.864Z,16.10
2022-08-25T23:46:52.824Z,16.00
2022-08-25T23:49:23.872Z,16.00
2022-08-25T23:51:53.586Z,15.90
2022-08-25T23:54:21.774Z,16.00
2022-08-25T23:56:58.992Z,16.00
2022-08-25T23:59:26.782Z,16.00
